sensor_id;sensor_type;location;lat;lon;timestamp;P1;durP1;ratioP1;P2;durP2;ratioP2
17993;SDS011;9122;48.406;9.984;2022-12-08T00:02:31;10.90;;;9.80;;
17993;SDS011;9122;48.406;9.984;2022-12-08T00:05:15;12.23;;;9.77;;
17993;SDS011;9122;48.406;9.984;2022-12-08T00:08:18;10.70;;;9.57;;
17993;SDS011;9122;48.406;9.984;2022-12-08T00:11:22;11.27;;;9.70;;
17993;SDS011;9122;48.406;9.984;2022-12-08T00:14:06;10.37;;;9.27;;
17993;SDS011;9122;48.406;9.984;2022-12-08T00:16:51;9.93;;;9.03;;
17993;SDS011;9122;48.406;9.984;2022-12-08T00:19:37;10.73;;;8.77;;
17993;SDS011;9122;48.406;9.984;2022-12-08T00:22:22;11.10;;;9.90;;
17993;SDS011;9122;48.406;9.984;2022-12-08T00:25:06;11.23;;;8.50;;
17993;SDS011;9122;48.406;9.984;2022-12-08T00:27:51;9.70;;;8.63;;
17993;SDS011;9122;48.406;9.984;2022-12-08T00:30:38;10.70;;;9.43;;
17993;SDS011;9122;48.406;9.984;2022-12-08T00:33:23;10.87;;;9.57;;
17993;SDS011;9122;48.406;9.984;2022-12-08T00:36:08;10.50;;;9.43;;
17993;SDS011;9122;48.406;9.984;2022-12-08T00:38:55;10.57;;;9.20;;
17993;SDS011;9122;48.406;9.984;2022-12-08T00:41:40;10.23;;;9.20;;
17993;SDS011;9122;48.406;9.984;2022-12-08T00:44:43;10.20;;;9.13;;
17993;SDS011;9122;48.406;9.984;2022-12-08T00:47:28;10.03;;;9.03;;
17993;SDS011;9122;48.406;9.984;2022-12-08T00:50:13;10.57;;;9.57;;
17993;SDS011;9122;48.406;9.984;2022-12-08T00:52:58;10.73;;;9.63;;
17993;SDS011;9122;48.406;9.984;2022-12-08T00:55:42;10.80;;;9.63;;
17993;SDS011;9122;48.406;9.984;2022-12-08T00:58:27;11.00;;;9.97;;
17993;SDS011;9122;48.406;9.984;2022-12-08T01:01:13;10.80;;;9.30;;
17993;SDS011;9122;48.406;9.984;2022-12-08T01:04:01;10.70;;;9.57;;
17993;SDS011;9122;48.406;9.984;2022-12-08T01:06:50;9.63;;;8.47;;
17993;SDS011;9122;48.406;9.984;2022-12-08T01:09:35;9.77;;;8.83;;
17993;SDS011;9122;48.406;9.984;2022-12-08T01:12:22;9.97;;;8.70;;
17993;SDS011;9122;48.406;9.984;2022-12-08T01:15:07;10.47;;;8.40;;
17993;SDS011;9122;48.406;9.984;2022-12-08T01:17:52;10.40;;;9.27;;
17993;SDS011;9122;48.406;9.984;2022-12-08T01:20:36;9.50;;;8.40;;
17993;SDS011;9122;48.406;9.984;2022-12-08T01:23:21;9.93;;;8.93;;
17993;SDS011;9122;48.406;9.984;2022-12-08T01:26:06;10.47;;;8.57;;
17993;SDS011;9122;48.406;9.984;2022-12-08T01:28:53;10.17;;;8.90;;
17993;SDS011;9122;48.406;9.984;2022-12-08T01:31:38;9.73;;;8.70;;
17993;SDS011;9122;48.406;9.984;2022-12-08T01:34:22;11.17;;;9.20;;
17993;SDS011;9122;48.406;9.984;2022-12-08T01:37:07;9.70;;;8.70;;
17993;SDS011;9122;48.406;9.984;2022-12-08T01:39:52;11.93;;;10.63;;
17993;SDS011;9122;48.406;9.984;2022-12-08T01:42:36;13.57;;;10.67;;
17993;SDS011;9122;48.406;9.984;2022-12-08T01:45:21;13.93;;;11.27;;
17993;SDS011;9122;48.406;9.984;2022-12-08T01:48:23;14.13;;;10.87;;
17993;SDS011;9122;48.406;9.984;2022-12-08T01:51:09;11.43;;;10.23;;
17993;SDS011;9122;48.406;9.984;2022-12-08T01:53:54;11.30;;;10.20;;
17993;SDS011;9122;48.406;9.984;2022-12-08T01:59:33;11.67;;;10.47;;
17993;SDS011;9122;48.406;9.984;2022-12-08T02:02:21;13.53;;;9.47;;
17993;SDS011;9122;48.406;9.984;2022-12-08T02:05:08;11.20;;;9.80;;
17993;SDS011;9122;48.406;9.984;2022-12-08T02:07:53;10.80;;;9.70;;
17993;SDS011;9122;48.406;9.984;2022-12-08T02:10:41;12.23;;;10.60;;
17993;SDS011;9122;48.406;9.984;2022-12-08T02:13:26;11.83;;;9.87;;
17993;SDS011;9122;48.406;9.984;2022-12-08T02:16:16;10.50;;;9.40;;
17993;SDS011;9122;48.406;9.984;2022-12-08T02:22:41;10.50;;;9.50;;
17993;SDS011;9122;48.406;9.984;2022-12-08T02:35:05;10.47;;;8.77;;
17993;SDS011;9122;48.406;9.984;2022-12-08T02:40:43;9.23;;;8.30;;
17993;SDS011;9122;48.406;9.984;2022-12-08T02:43:59;9.03;;;8.10;;
17993;SDS011;9122;48.406;9.984;2022-12-08T02:46:50;9.73;;;8.77;;
17993;SDS011;9122;48.406;9.984;2022-12-08T02:49:54;9.03;;;8.13;;
17993;SDS011;9122;48.406;9.984;2022-12-08T02:52:42;9.80;;;8.63;;
17993;SDS011;9122;48.406;9.984;2022-12-08T03:05:02;9.27;;;8.30;;
17993;SDS011;9122;48.406;9.984;2022-12-08T03:11:16;8.90;;;8.00;;
17993;SDS011;9122;48.406;9.984;2022-12-08T03:14:05;8.83;;;7.80;;
17993;SDS011;9122;48.406;9.984;2022-12-08T03:16:52;8.93;;;8.03;;
17993;SDS011;9122;48.406;9.984;2022-12-08T03:19:40;9.13;;;8.03;;
17993;SDS011;9122;48.406;9.984;2022-12-08T03:22:26;9.20;;;8.17;;
17993;SDS011;9122;48.406;9.984;2022-12-08T03:25:12;8.77;;;8.00;;
17993;SDS011;9122;48.406;9.984;2022-12-08T03:28:00;8.37;;;7.53;;
17993;SDS011;9122;48.406;9.984;2022-12-08T03:30:44;8.70;;;7.80;;
17993;SDS011;9122;48.406;9.984;2022-12-08T03:33:32;8.80;;;7.80;;
17993;SDS011;9122;48.406;9.984;2022-12-08T03:36:20;8.60;;;7.67;;
17993;SDS011;9122;48.406;9.984;2022-12-08T03:39:05;8.57;;;7.77;;
17993;SDS011;9122;48.406;9.984;2022-12-08T03:41:50;11.50;;;7.93;;
17993;SDS011;9122;48.406;9.984;2022-12-08T03:44:34;8.50;;;7.63;;
17993;SDS011;9122;48.406;9.984;2022-12-08T03:47:19;10.27;;;8.07;;
17993;SDS011;9122;48.406;9.984;2022-12-08T03:50:08;9.23;;;8.27;;
17993;SDS011;9122;48.406;9.984;2022-12-08T03:52:54;9.07;;;7.70;;
17993;SDS011;9122;48.406;9.984;2022-12-08T03:55:38;9.00;;;8.17;;
17993;SDS011;9122;48.406;9.984;2022-12-08T03:58:23;8.70;;;7.80;;
17993;SDS011;9122;48.406;9.984;2022-12-08T04:01:07;11.60;;;8.30;;
17993;SDS011;9122;48.406;9.984;2022-12-08T04:03:51;8.47;;;7.57;;
17993;SDS011;9122;48.406;9.984;2022-12-08T04:06:36;10.57;;;8.47;;
17993;SDS011;9122;48.406;9.984;2022-12-08T04:09:20;9.13;;;8.10;;
17993;SDS011;9122;48.406;9.984;2022-12-08T04:12:06;9.03;;;8.10;;
17993;SDS011;9122;48.406;9.984;2022-12-08T04:14:51;9.20;;;8.17;;
17993;SDS011;9122;48.406;9.984;2022-12-08T04:17:35;8.83;;;7.93;;
17993;SDS011;9122;48.406;9.984;2022-12-08T04:20:19;13.83;;;8.73;;
17993;SDS011;9122;48.406;9.984;2022-12-08T04:23:04;10.50;;;9.40;;
17993;SDS011;9122;48.406;9.984;2022-12-08T04:25:49;10.40;;;8.60;;
17993;SDS011;9122;48.406;9.984;2022-12-08T04:28:35;9.70;;;7.90;;
17993;SDS011;9122;48.406;9.984;2022-12-08T04:31:19;9.40;;;8.50;;
17993;SDS011;9122;48.406;9.984;2022-12-08T04:34:04;10.13;;;9.00;;
17993;SDS011;9122;48.406;9.984;2022-12-08T04:36:49;9.47;;;8.50;;
17993;SDS011;9122;48.406;9.984;2022-12-08T04:39:33;9.97;;;8.37;;
17993;SDS011;9122;48.406;9.984;2022-12-08T04:42:18;10.03;;;8.10;;
17993;SDS011;9122;48.406;9.984;2022-12-08T04:45:03;9.23;;;7.80;;
17993;SDS011;9122;48.406;9.984;2022-12-08T04:47:48;10.30;;;9.20;;
17993;SDS011;9122;48.406;9.984;2022-12-08T04:50:35;10.07;;;8.37;;
17993;SDS011;9122;48.406;9.984;2022-12-08T04:53:23;10.60;;;8.73;;
17993;SDS011;9122;48.406;9.984;2022-12-08T04:56:10;8.53;;;7.73;;
17993;SDS011;9122;48.406;9.984;2022-12-08T04:58:58;9.63;;;8.57;;
17993;SDS011;9122;48.406;9.984;2022-12-08T05:01:43;10.60;;;8.53;;
17993;SDS011;9122;48.406;9.984;2022-12-08T05:04:27;8.80;;;7.90;;
17993;SDS011;9122;48.406;9.984;2022-12-08T05:07:12;9.83;;;8.67;;
17993;SDS011;9122;48.406;9.984;2022-12-08T05:09:56;9.83;;;8.40;;
17993;SDS011;9122;48.406;9.984;2022-12-08T05:12:41;10.03;;;8.60;;
17993;SDS011;9122;48.406;9.984;2022-12-08T05:15:26;10.07;;;7.93;;
17993;SDS011;9122;48.406;9.984;2022-12-08T05:18:10;10.60;;;8.40;;
17993;SDS011;9122;48.406;9.984;2022-12-08T05:20:55;8.67;;;7.70;;
17993;SDS011;9122;48.406;9.984;2022-12-08T05:23:39;9.47;;;8.57;;
17993;SDS011;9122;48.406;9.984;2022-12-08T05:26:24;9.67;;;8.70;;
17993;SDS011;9122;48.406;9.984;2022-12-08T05:29:09;9.57;;;8.67;;
17993;SDS011;9122;48.406;9.984;2022-12-08T05:31:53;8.83;;;7.93;;
17993;SDS011;9122;48.406;9.984;2022-12-08T05:34:38;9.30;;;8.40;;
17993;SDS011;9122;48.406;9.984;2022-12-08T05:37:22;11.60;;;8.37;;
17993;SDS011;9122;48.406;9.984;2022-12-08T05:40:07;11.53;;;7.60;;
17993;SDS011;9122;48.406;9.984;2022-12-08T05:42:52;9.57;;;8.47;;
17993;SDS011;9122;48.406;9.984;2022-12-08T05:45:36;8.47;;;7.53;;
17993;SDS011;9122;48.406;9.984;2022-12-08T05:48:20;9.23;;;7.80;;
17993;SDS011;9122;48.406;9.984;2022-12-08T05:51:15;9.67;;;8.53;;
17993;SDS011;9122;48.406;9.984;2022-12-08T05:54:02;9.57;;;8.43;;
17993;SDS011;9122;48.406;9.984;2022-12-08T05:56:46;8.70;;;7.63;;
17993;SDS011;9122;48.406;9.984;2022-12-08T05:59:31;8.90;;;7.97;;
17993;SDS011;9122;48.406;9.984;2022-12-08T06:02:16;8.03;;;7.23;;
17993;SDS011;9122;48.406;9.984;2022-12-08T06:05:00;8.30;;;7.50;;
17993;SDS011;9122;48.406;9.984;2022-12-08T06:07:45;8.20;;;7.40;;
17993;SDS011;9122;48.406;9.984;2022-12-08T06:10:30;9.30;;;8.03;;
17993;SDS011;9122;48.406;9.984;2022-12-08T06:13:18;9.03;;;6.97;;
17993;SDS011;9122;48.406;9.984;2022-12-08T06:16:08;7.93;;;7.13;;
17993;SDS011;9122;48.406;9.984;2022-12-08T06:18:53;9.17;;;8.10;;
17993;SDS011;9122;48.406;9.984;2022-12-08T06:21:37;11.47;;;8.27;;
17993;SDS011;9122;48.406;9.984;2022-12-08T06:24:25;8.23;;;7.43;;
17993;SDS011;9122;48.406;9.984;2022-12-08T06:27:11;9.87;;;8.60;;
17993;SDS011;9122;48.406;9.984;2022-12-08T06:29:57;10.00;;;7.77;;
17993;SDS011;9122;48.406;9.984;2022-12-08T06:32:42;9.60;;;7.70;;
17993;SDS011;9122;48.406;9.984;2022-12-08T06:35:26;10.13;;;7.97;;
17993;SDS011;9122;48.406;9.984;2022-12-08T06:38:11;9.27;;;7.83;;
17993;SDS011;9122;48.406;9.984;2022-12-08T06:40:55;9.73;;;8.30;;
17993;SDS011;9122;48.406;9.984;2022-12-08T06:43:41;9.27;;;7.97;;
17993;SDS011;9122;48.406;9.984;2022-12-08T06:46:26;9.43;;;7.97;;
17993;SDS011;9122;48.406;9.984;2022-12-08T06:49:11;11.67;;;8.90;;
17993;SDS011;9122;48.406;9.984;2022-12-08T06:51:55;12.80;;;9.60;;
17993;SDS011;9122;48.406;9.984;2022-12-08T06:54:40;9.53;;;8.13;;
17993;SDS011;9122;48.406;9.984;2022-12-08T06:57:24;9.40;;;7.83;;
17993;SDS011;9122;48.406;9.984;2022-12-08T07:00:09;9.50;;;8.17;;
17993;SDS011;9122;48.406;9.984;2022-12-08T07:02:56;9.33;;;8.47;;
17993;SDS011;9122;48.406;9.984;2022-12-08T07:08:58;11.03;;;8.20;;
17993;SDS011;9122;48.406;9.984;2022-12-08T07:11:42;18.37;;;8.93;;
17993;SDS011;9122;48.406;9.984;2022-12-08T07:14:29;9.53;;;8.27;;
17993;SDS011;9122;48.406;9.984;2022-12-08T07:17:13;9.97;;;8.03;;
17993;SDS011;9122;48.406;9.984;2022-12-08T07:19:58;8.93;;;8.03;;
17993;SDS011;9122;48.406;9.984;2022-12-08T07:22:50;11.80;;;8.60;;
17993;SDS011;9122;48.406;9.984;2022-12-08T07:25:35;10.27;;;9.17;;
17993;SDS011;9122;48.406;9.984;2022-12-08T07:28:20;9.20;;;7.93;;
17993;SDS011;9122;48.406;9.984;2022-12-08T07:31:05;10.83;;;9.03;;
17993;SDS011;9122;48.406;9.984;2022-12-08T07:33:51;12.70;;;9.40;;
17993;SDS011;9122;48.406;9.984;2022-12-08T07:36:35;14.13;;;11.43;;
17993;SDS011;9122;48.406;9.984;2022-12-08T07:39:20;15.30;;;10.90;;
17993;SDS011;9122;48.406;9.984;2022-12-08T07:42:04;12.70;;;10.27;;
17993;SDS011;9122;48.406;9.984;2022-12-08T07:44:48;15.43;;;10.63;;
17993;SDS011;9122;48.406;9.984;2022-12-08T07:47:33;14.17;;;10.17;;
17993;SDS011;9122;48.406;9.984;2022-12-08T07:50:26;18.87;;;11.67;;
17993;SDS011;9122;48.406;9.984;2022-12-08T07:53:11;14.70;;;10.97;;
17993;SDS011;9122;48.406;9.984;2022-12-08T07:55:56;17.10;;;10.20;;
17993;SDS011;9122;48.406;9.984;2022-12-08T07:58:41;17.60;;;12.53;;
17993;SDS011;9122;48.406;9.984;2022-12-08T08:01:28;17.20;;;12.23;;
17993;SDS011;9122;48.406;9.984;2022-12-08T08:04:15;19.23;;;12.30;;
17993;SDS011;9122;48.406;9.984;2022-12-08T08:06:59;19.93;;;12.10;;
17993;SDS011;9122;48.406;9.984;2022-12-08T08:09:44;15.17;;;12.13;;
17993;SDS011;9122;48.406;9.984;2022-12-08T08:12:28;14.23;;;10.10;;
17993;SDS011;9122;48.406;9.984;2022-12-08T08:15:13;13.73;;;10.70;;
17993;SDS011;9122;48.406;9.984;2022-12-08T08:17:57;12.57;;;10.30;;
17993;SDS011;9122;48.406;9.984;2022-12-08T08:20:42;11.93;;;9.97;;
17993;SDS011;9122;48.406;9.984;2022-12-08T08:23:26;14.10;;;10.03;;
17993;SDS011;9122;48.406;9.984;2022-12-08T08:26:11;11.40;;;10.30;;
17993;SDS011;9122;48.406;9.984;2022-12-08T08:28:56;11.77;;;10.53;;
17993;SDS011;9122;48.406;9.984;2022-12-08T08:31:41;17.80;;;11.13;;
17993;SDS011;9122;48.406;9.984;2022-12-08T08:34:25;17.03;;;11.50;;
17993;SDS011;9122;48.406;9.984;2022-12-08T08:37:09;12.97;;;10.67;;
17993;SDS011;9122;48.406;9.984;2022-12-08T08:39:54;17.47;;;12.43;;
17993;SDS011;9122;48.406;9.984;2022-12-08T08:42:39;12.60;;;11.13;;
17993;SDS011;9122;48.406;9.984;2022-12-08T08:45:24;21.23;;;10.80;;
17993;SDS011;9122;48.406;9.984;2022-12-08T08:48:08;19.33;;;12.47;;
17993;SDS011;9122;48.406;9.984;2022-12-08T08:50:53;17.40;;;12.83;;
17993;SDS011;9122;48.406;9.984;2022-12-08T08:53:38;17.83;;;12.03;;
17993;SDS011;9122;48.406;9.984;2022-12-08T08:56:23;17.30;;;12.33;;
17993;SDS011;9122;48.406;9.984;2022-12-08T08:59:08;15.23;;;12.57;;
17993;SDS011;9122;48.406;9.984;2022-12-08T09:01:53;17.57;;;12.30;;
17993;SDS011;9122;48.406;9.984;2022-12-08T09:04:38;14.80;;;11.73;;
17993;SDS011;9122;48.406;9.984;2022-12-08T09:07:22;15.47;;;12.77;;
17993;SDS011;9122;48.406;9.984;2022-12-08T09:10:06;14.47;;;12.30;;
17993;SDS011;9122;48.406;9.984;2022-12-08T09:12:52;18.70;;;11.27;;
17993;SDS011;9122;48.406;9.984;2022-12-08T09:15:36;14.30;;;10.83;;
17993;SDS011;9122;48.406;9.984;2022-12-08T09:18:20;14.07;;;11.83;;
17993;SDS011;9122;48.406;9.984;2022-12-08T09:21:14;19.53;;;11.10;;
17993;SDS011;9122;48.406;9.984;2022-12-08T09:24:05;25.87;;;12.00;;
17993;SDS011;9122;48.406;9.984;2022-12-08T09:26:53;16.80;;;11.23;;
17993;SDS011;9122;48.406;9.984;2022-12-08T09:29:37;14.07;;;10.80;;
17993;SDS011;9122;48.406;9.984;2022-12-08T09:32:21;13.43;;;11.53;;
17993;SDS011;9122;48.406;9.984;2022-12-08T09:35:06;15.23;;;11.77;;
17993;SDS011;9122;48.406;9.984;2022-12-08T09:37:51;16.87;;;11.33;;
17993;SDS011;9122;48.406;9.984;2022-12-08T09:40:38;15.63;;;13.40;;
17993;SDS011;9122;48.406;9.984;2022-12-08T09:46:55;13.47;;;11.83;;
17993;SDS011;9122;48.406;9.984;2022-12-08T09:49:44;13.77;;;11.57;;
17993;SDS011;9122;48.406;9.984;2022-12-08T09:52:46;15.27;;;11.77;;
17993;SDS011;9122;48.406;9.984;2022-12-08T10:01:51;12.73;;;11.43;;
17993;SDS011;9122;48.406;9.984;2022-12-08T10:04:37;18.27;;;12.67;;
17993;SDS011;9122;48.406;9.984;2022-12-08T10:07:43;19.30;;;13.73;;
17993;SDS011;9122;48.406;9.984;2022-12-08T10:10:38;15.97;;;13.23;;
17993;SDS011;9122;48.406;9.984;2022-12-08T10:16:47;18.57;;;13.07;;
17993;SDS011;9122;48.406;9.984;2022-12-08T10:19:33;16.93;;;15.00;;
17993;SDS011;9122;48.406;9.984;2022-12-08T10:22:27;21.13;;;15.63;;
17993;SDS011;9122;48.406;9.984;2022-12-08T10:28:03;19.50;;;14.50;;
17993;SDS011;9122;48.406;9.984;2022-12-08T10:30:47;19.07;;;14.37;;
17993;SDS011;9122;48.406;9.984;2022-12-08T10:33:32;19.63;;;15.77;;
17993;SDS011;9122;48.406;9.984;2022-12-08T10:36:16;22.57;;;15.23;;
17993;SDS011;9122;48.406;9.984;2022-12-08T10:39:01;19.67;;;15.40;;
17993;SDS011;9122;48.406;9.984;2022-12-08T10:41:45;21.77;;;15.07;;
17993;SDS011;9122;48.406;9.984;2022-12-08T10:44:36;23.67;;;15.60;;
17993;SDS011;9122;48.406;9.984;2022-12-08T10:47:39;22.27;;;15.03;;
17993;SDS011;9122;48.406;9.984;2022-12-08T10:50:43;22.43;;;15.33;;
17993;SDS011;9122;48.406;9.984;2022-12-08T10:53:29;21.37;;;16.50;;
17993;SDS011;9122;48.406;9.984;2022-12-08T10:56:14;20.47;;;15.83;;
17993;SDS011;9122;48.406;9.984;2022-12-08T11:01:53;21.33;;;16.10;;
17993;SDS011;9122;48.406;9.984;2022-12-08T11:04:39;21.80;;;16.13;;
17993;SDS011;9122;48.406;9.984;2022-12-08T11:07:24;25.70;;;19.43;;
17993;SDS011;9122;48.406;9.984;2022-12-08T11:10:14;20.23;;;17.23;;
17993;SDS011;9122;48.406;9.984;2022-12-08T11:13:02;21.20;;;16.53;;
17993;SDS011;9122;48.406;9.984;2022-12-08T11:15:49;20.97;;;16.23;;
17993;SDS011;9122;48.406;9.984;2022-12-08T11:18:38;19.13;;;16.30;;
17993;SDS011;9122;48.406;9.984;2022-12-08T11:21:35;21.53;;;16.70;;
17993;SDS011;9122;48.406;9.984;2022-12-08T11:24:25;19.13;;;15.43;;
17993;SDS011;9122;48.406;9.984;2022-12-08T11:27:11;17.60;;;15.43;;
17993;SDS011;9122;48.406;9.984;2022-12-08T11:29:55;21.10;;;16.97;;
17993;SDS011;9122;48.406;9.984;2022-12-08T11:32:40;25.00;;;18.60;;
17993;SDS011;9122;48.406;9.984;2022-12-08T11:35:35;28.93;;;21.27;;
17993;SDS011;9122;48.406;9.984;2022-12-08T11:38:22;27.90;;;21.33;;
17993;SDS011;9122;48.406;9.984;2022-12-08T11:41:10;31.80;;;20.80;;
17993;SDS011;9122;48.406;9.984;2022-12-08T11:47:05;29.70;;;20.43;;
17993;SDS011;9122;48.406;9.984;2022-12-08T11:50:24;32.20;;;22.27;;
17993;SDS011;9122;48.406;9.984;2022-12-08T11:53:14;27.23;;;21.47;;
17993;SDS011;9122;48.406;9.984;2022-12-08T11:56:24;33.83;;;24.13;;
17993;SDS011;9122;48.406;9.984;2022-12-08T11:59:17;32.40;;;22.37;;
17993;SDS011;9122;48.406;9.984;2022-12-08T12:02:23;27.73;;;22.83;;
17993;SDS011;9122;48.406;9.984;2022-12-08T12:08:25;30.47;;;22.83;;
17993;SDS011;9122;48.406;9.984;2022-12-08T12:11:32;27.53;;;21.10;;
17993;SDS011;9122;48.406;9.984;2022-12-08T12:21:12;22.53;;;19.57;;
17993;SDS011;9122;48.406;9.984;2022-12-08T12:24:09;23.40;;;18.17;;
17993;SDS011;9122;48.406;9.984;2022-12-08T12:29:52;22.67;;;18.80;;
17993;SDS011;9122;48.406;9.984;2022-12-08T12:32:46;24.23;;;18.70;;
17993;SDS011;9122;48.406;9.984;2022-12-08T12:35:35;22.90;;;17.30;;
17993;SDS011;9122;48.406;9.984;2022-12-08T12:41:51;22.03;;;18.57;;
17993;SDS011;9122;48.406;9.984;2022-12-08T12:44:43;25.97;;;23.00;;
17993;SDS011;9122;48.406;9.984;2022-12-08T12:56:45;27.67;;;22.90;;
17993;SDS011;9122;48.406;9.984;2022-12-08T12:59:38;30.60;;;22.10;;
17993;SDS011;9122;48.406;9.984;2022-12-08T13:05:23;26.80;;;21.90;;
17993;SDS011;9122;48.406;9.984;2022-12-08T13:08:23;30.60;;;22.27;;
17993;SDS011;9122;48.406;9.984;2022-12-08T13:11:10;28.47;;;21.10;;
17993;SDS011;9122;48.406;9.984;2022-12-08T13:13:55;28.70;;;21.87;;
17993;SDS011;9122;48.406;9.984;2022-12-08T13:16:45;29.33;;;21.07;;
17993;SDS011;9122;48.406;9.984;2022-12-08T13:19:37;26.50;;;20.57;;
17993;SDS011;9122;48.406;9.984;2022-12-08T13:25:45;27.60;;;20.57;;
17993;SDS011;9122;48.406;9.984;2022-12-08T13:28:31;27.83;;;22.97;;
17993;SDS011;9122;48.406;9.984;2022-12-08T13:34:40;27.30;;;21.13;;
17993;SDS011;9122;48.406;9.984;2022-12-08T13:37:43;28.03;;;23.93;;
17993;SDS011;9122;48.406;9.984;2022-12-08T13:40:30;32.57;;;25.30;;
17993;SDS011;9122;48.406;9.984;2022-12-08T13:43:19;35.27;;;25.80;;
17993;SDS011;9122;48.406;9.984;2022-12-08T13:46:22;37.53;;;28.97;;
17993;SDS011;9122;48.406;9.984;2022-12-08T13:49:17;24.10;;;20.73;;
17993;SDS011;9122;48.406;9.984;2022-12-08T13:52:13;28.63;;;19.63;;
17993;SDS011;9122;48.406;9.984;2022-12-08T13:55:02;21.43;;;17.43;;
17993;SDS011;9122;48.406;9.984;2022-12-08T13:57:57;23.23;;;17.87;;
17993;SDS011;9122;48.406;9.984;2022-12-08T14:00:42;24.30;;;16.90;;
17993;SDS011;9122;48.406;9.984;2022-12-08T14:03:56;22.03;;;16.43;;
17993;SDS011;9122;48.406;9.984;2022-12-08T14:06:41;21.30;;;18.30;;
17993;SDS011;9122;48.406;9.984;2022-12-08T14:09:31;24.20;;;17.13;;
17993;SDS011;9122;48.406;9.984;2022-12-08T14:12:20;21.70;;;17.37;;
17993;SDS011;9122;48.406;9.984;2022-12-08T14:15:10;23.70;;;17.77;;
17993;SDS011;9122;48.406;9.984;2022-12-08T14:17:57;21.13;;;16.97;;
17993;SDS011;9122;48.406;9.984;2022-12-08T14:20:42;21.53;;;15.23;;
17993;SDS011;9122;48.406;9.984;2022-12-08T14:23:27;16.47;;;13.60;;
17993;SDS011;9122;48.406;9.984;2022-12-08T14:26:11;17.97;;;13.10;;
17993;SDS011;9122;48.406;9.984;2022-12-08T14:28:56;16.53;;;13.13;;
17993;SDS011;9122;48.406;9.984;2022-12-08T14:31:41;16.07;;;13.33;;
17993;SDS011;9122;48.406;9.984;2022-12-08T14:34:26;21.17;;;14.27;;
17993;SDS011;9122;48.406;9.984;2022-12-08T14:37:11;16.83;;;13.33;;
17993;SDS011;9122;48.406;9.984;2022-12-08T14:39:58;19.57;;;13.90;;
17993;SDS011;9122;48.406;9.984;2022-12-08T14:43:31;17.40;;;13.47;;
17993;SDS011;9122;48.406;9.984;2022-12-08T14:45:53;17.80;;;12.90;;
17993;SDS011;9122;48.406;9.984;2022-12-08T14:48:47;15.20;;;13.17;;
17993;SDS011;9122;48.406;9.984;2022-12-08T14:51:32;17.77;;;13.63;;
17993;SDS011;9122;48.406;9.984;2022-12-08T14:54:19;16.67;;;14.13;;
17993;SDS011;9122;48.406;9.984;2022-12-08T14:57:04;14.67;;;12.93;;
17993;SDS011;9122;48.406;9.984;2022-12-08T14:59:50;16.13;;;13.67;;
17993;SDS011;9122;48.406;9.984;2022-12-08T15:02:34;20.63;;;14.27;;
17993;SDS011;9122;48.406;9.984;2022-12-08T15:05:28;16.63;;;14.33;;
17993;SDS011;9122;48.406;9.984;2022-12-08T15:08:13;19.03;;;13.87;;
17993;SDS011;9122;48.406;9.984;2022-12-08T15:14:23;23.30;;;14.53;;
17993;SDS011;9122;48.406;9.984;2022-12-08T15:23:35;17.60;;;12.90;;
17993;SDS011;9122;48.406;9.984;2022-12-08T15:26:28;19.00;;;14.90;;
17993;SDS011;9122;48.406;9.984;2022-12-08T15:29:22;16.03;;;13.40;;
17993;SDS011;9122;48.406;9.984;2022-12-08T15:32:09;19.27;;;13.90;;
17993;SDS011;9122;48.406;9.984;2022-12-08T15:34:54;16.17;;;13.70;;
17993;SDS011;9122;48.406;9.984;2022-12-08T15:37:38;17.73;;;13.97;;
17993;SDS011;9122;48.406;9.984;2022-12-08T15:40:23;23.20;;;13.63;;
17993;SDS011;9122;48.406;9.984;2022-12-08T15:43:10;17.47;;;15.53;;
17993;SDS011;9122;48.406;9.984;2022-12-08T15:45:54;13.77;;;12.40;;
17993;SDS011;9122;48.406;9.984;2022-12-08T15:48:39;13.60;;;11.90;;
17993;SDS011;9122;48.406;9.984;2022-12-08T15:51:23;13.43;;;11.80;;
17993;SDS011;9122;48.406;9.984;2022-12-08T15:54:08;14.17;;;10.67;;
17993;SDS011;9122;48.406;9.984;2022-12-08T15:56:53;13.57;;;11.07;;
17993;SDS011;9122;48.406;9.984;2022-12-08T15:59:40;12.80;;;10.07;;
17993;SDS011;9122;48.406;9.984;2022-12-08T16:02:24;11.63;;;10.43;;
17993;SDS011;9122;48.406;9.984;2022-12-08T16:05:08;11.70;;;10.33;;
17993;SDS011;9122;48.406;9.984;2022-12-08T16:07:53;12.00;;;10.33;;
17993;SDS011;9122;48.406;9.984;2022-12-08T16:10:37;11.47;;;9.90;;
17993;SDS011;9122;48.406;9.984;2022-12-08T16:13:23;9.87;;;8.87;;
17993;SDS011;9122;48.406;9.984;2022-12-08T16:16:27;13.30;;;11.07;;
17993;SDS011;9122;48.406;9.984;2022-12-08T16:19:12;18.13;;;13.53;;
17993;SDS011;9122;48.406;9.984;2022-12-08T16:21:57;12.23;;;10.77;;
17993;SDS011;9122;48.406;9.984;2022-12-08T16:24:41;14.90;;;10.73;;
17993;SDS011;9122;48.406;9.984;2022-12-08T16:27:26;12.57;;;10.17;;
17993;SDS011;9122;48.406;9.984;2022-12-08T16:30:13;17.57;;;10.63;;
17993;SDS011;9122;48.406;9.984;2022-12-08T16:32:59;12.90;;;10.37;;
17993;SDS011;9122;48.406;9.984;2022-12-08T16:35:43;15.07;;;10.60;;
17993;SDS011;9122;48.406;9.984;2022-12-08T16:38:28;13.97;;;10.53;;
17993;SDS011;9122;48.406;9.984;2022-12-08T16:41:13;16.23;;;10.97;;
17993;SDS011;9122;48.406;9.984;2022-12-08T16:44:17;11.27;;;10.03;;
17993;SDS011;9122;48.406;9.984;2022-12-08T16:47:06;11.53;;;10.33;;
17993;SDS011;9122;48.406;9.984;2022-12-08T16:49:52;14.53;;;11.07;;
17993;SDS011;9122;48.406;9.984;2022-12-08T16:52:36;14.73;;;12.07;;
17993;SDS011;9122;48.406;9.984;2022-12-08T16:55:21;21.33;;;16.27;;
17993;SDS011;9122;48.406;9.984;2022-12-08T16:58:05;30.07;;;21.73;;
17993;SDS011;9122;48.406;9.984;2022-12-08T17:00:50;20.43;;;12.93;;
17993;SDS011;9122;48.406;9.984;2022-12-08T17:03:35;16.87;;;10.43;;
17993;SDS011;9122;48.406;9.984;2022-12-08T17:06:20;12.40;;;11.07;;
17993;SDS011;9122;48.406;9.984;2022-12-08T17:09:05;14.33;;;12.20;;
17993;SDS011;9122;48.406;9.984;2022-12-08T17:11:49;8.63;;;7.27;;
17993;SDS011;9122;48.406;9.984;2022-12-08T17:14:34;7.43;;;6.73;;
17993;SDS011;9122;48.406;9.984;2022-12-08T17:17:18;8.63;;;6.60;;
17993;SDS011;9122;48.406;9.984;2022-12-08T17:20:03;6.30;;;5.80;;
17993;SDS011;9122;48.406;9.984;2022-12-08T17:22:52;6.67;;;5.77;;
17993;SDS011;9122;48.406;9.984;2022-12-08T17:25:40;9.70;;;5.73;;
17993;SDS011;9122;48.406;9.984;2022-12-08T17:28:25;7.47;;;5.77;;
17993;SDS011;9122;48.406;9.984;2022-12-08T17:31:11;6.83;;;6.13;;
17993;SDS011;9122;48.406;9.984;2022-12-08T17:34:00;6.97;;;6.27;;
17993;SDS011;9122;48.406;9.984;2022-12-08T17:36:46;8.07;;;5.80;;
17993;SDS011;9122;48.406;9.984;2022-12-08T17:39:30;6.83;;;6.23;;
17993;SDS011;9122;48.406;9.984;2022-12-08T17:42:22;7.67;;;7.03;;
17993;SDS011;9122;48.406;9.984;2022-12-08T17:45:08;8.27;;;7.57;;
17993;SDS011;9122;48.406;9.984;2022-12-08T17:47:53;11.27;;;10.10;;
17993;SDS011;9122;48.406;9.984;2022-12-08T17:50:43;12.33;;;9.47;;
17993;SDS011;9122;48.406;9.984;2022-12-08T17:53:27;9.47;;;8.20;;
17993;SDS011;9122;48.406;9.984;2022-12-08T17:56:13;8.17;;;7.47;;
17993;SDS011;9122;48.406;9.984;2022-12-08T17:59:02;9.83;;;7.83;;
17993;SDS011;9122;48.406;9.984;2022-12-08T18:01:47;9.23;;;8.30;;
17993;SDS011;9122;48.406;9.984;2022-12-08T18:04:31;11.00;;;9.83;;
17993;SDS011;9122;48.406;9.984;2022-12-08T18:07:16;11.87;;;10.17;;
17993;SDS011;9122;48.406;9.984;2022-12-08T18:10:00;11.97;;;9.90;;
17993;SDS011;9122;48.406;9.984;2022-12-08T18:12:45;11.10;;;10.10;;
17993;SDS011;9122;48.406;9.984;2022-12-08T18:15:30;18.40;;;10.93;;
17993;SDS011;9122;48.406;9.984;2022-12-08T18:18:14;16.73;;;13.23;;
17993;SDS011;9122;48.406;9.984;2022-12-08T18:20:59;19.67;;;12.70;;
17993;SDS011;9122;48.406;9.984;2022-12-08T18:23:44;41.13;;;25.73;;
17993;SDS011;9122;48.406;9.984;2022-12-08T18:26:29;33.67;;;23.97;;